createdAt,value
2019-05-28T00:00:03.224Z,0.00
2019-05-28T00:01:03.033Z,0.00
2019-05-28T00:02:03.023Z,0.00
2019-05-28T00:03:03.012Z,0.00
2019-05-28T00:04:03.141Z,0.00
2019-05-28T00:05:02.997Z,0.00
2019-05-28T00:06:02.987Z,0.00
2019-05-28T00:07:02.975Z,0.00
2019-05-28T00:08:02.967Z,0.00
2019-05-28T00:09:03.005Z,0.00
2019-05-28T00:10:03.066Z,0.00
2019-05-28T00:11:02.945Z,0.00
2019-05-28T00:12:02.935Z,0.00
2019-05-28T00:13:02.919Z,0.00
2019-05-28T00:14:02.959Z,0.00
2019-05-28T00:15:02.905Z,0.00
2019-05-28T00:16:02.890Z,0.00
2019-05-28T00:17:02.879Z,0.00
2019-05-28T00:18:02.871Z,0.00
2019-05-28T00:19:02.860Z,0.00
2019-05-28T00:20:02.851Z,0.00
2019-05-28T00:21:02.842Z,0.00
2019-05-28T00:22:02.833Z,0.00
2019-05-28T00:23:02.825Z,0.00
2019-05-28T00:24:02.824Z,0.00
2019-05-28T00:25:02.804Z,0.00
2019-05-28T00:26:02.795Z,0.00
2019-05-28T00:27:02.790Z,0.00
2019-05-28T00:28:02.782Z,0.00
2019-05-28T00:29:02.766Z,0.00
2019-05-28T00:30:18.412Z,0.00
2019-05-28T00:31:02.748Z,0.00
2019-05-28T00:32:02.739Z,0.00
2019-05-28T00:33:02.729Z,0.00
2019-05-28T00:34:02.821Z,0.00
2019-05-28T00:35:02.711Z,0.00
2019-05-28T00:36:02.704Z,0.00
2019-05-28T00:37:02.692Z,0.00
2019-05-28T00:38:02.683Z,0.00
2019-05-28T00:39:02.674Z,0.00
2019-05-28T00:40:02.872Z,0.00
2019-05-28T00:41:02.658Z,0.00
2019-05-28T00:42:02.646Z,0.00
2019-05-28T00:43:02.638Z,0.00
2019-05-28T00:44:02.628Z,0.00
2019-05-28T00:45:02.618Z,0.00
2019-05-28T00:46:02.609Z,0.00
2019-05-28T00:47:02.603Z,0.00
2019-05-28T00:48:02.592Z,0.00
2019-05-28T00:49:02.581Z,0.00
2019-05-28T00:50:02.575Z,0.00
2019-05-28T00:51:02.563Z,0.00
2019-05-28T00:52:02.555Z,0.00
2019-05-28T00:53:02.544Z,0.00
2019-05-28T00:54:02.536Z,0.00
2019-05-28T00:55:02.529Z,0.00
2019-05-28T00:56:02.519Z,0.00
2019-05-28T00:57:02.513Z,0.00
2019-05-28T00:58:02.500Z,0.00
2019-05-28T00:59:02.492Z,0.00
2019-05-28T01:00:02.482Z,0.00
2019-05-28T01:01:02.470Z,0.00
2019-05-28T01:02:02.463Z,0.00
2019-05-28T01:03:02.455Z,0.00
2019-05-28T01:04:02.445Z,0.00
2019-05-28T01:05:02.434Z,0.00
2019-05-28T01:06:02.425Z,0.00
2019-05-28T01:07:02.420Z,0.00
2019-05-28T01:08:02.409Z,0.00
2019-05-28T01:09:02.406Z,0.00
2019-05-28T01:10:02.453Z,0.00
2019-05-28T01:11:02.382Z,0.00
2019-05-28T01:12:02.379Z,0.00
2019-05-28T01:13:02.405Z,0.00
2019-05-28T01:14:02.351Z,0.00
2019-05-28T01:15:02.442Z,0.00
2019-05-28T01:16:02.333Z,0.00
2019-05-28T01:17:02.322Z,0.00
2019-05-28T01:18:02.314Z,0.00
2019-05-28T01:19:02.304Z,0.00
2019-05-28T01:20:02.299Z,0.00
2019-05-28T01:21:02.285Z,0.00
2019-05-28T01:22:02.276Z,0.00
2019-05-28T01:23:02.395Z,0.00
2019-05-28T01:24:02.258Z,0.00
2019-05-28T01:25:03.805Z,0.00
2019-05-28T01:26:02.239Z,0.00
2019-05-28T01:27:02.234Z,0.00
2019-05-28T01:28:02.221Z,0.00
2019-05-28T01:29:02.212Z,0.00
2019-05-28T01:30:02.201Z,0.00
2019-05-28T01:31:02.214Z,0.00
2019-05-28T01:32:02.183Z,0.00
2019-05-28T01:33:02.173Z,0.00
2019-05-28T01:34:02.163Z,0.00
2019-05-28T01:35:02.155Z,0.00
2019-05-28T01:36:02.147Z,0.00
2019-05-28T01:37:02.135Z,0.00
2019-05-28T01:38:02.125Z,0.00
2019-05-28T01:39:02.116Z,0.00
2019-05-28T01:40:02.106Z,0.00
2019-05-28T01:41:02.100Z,0.00
2019-05-28T01:42:02.087Z,0.00
2019-05-28T01:43:02.081Z,0.00
2019-05-28T01:44:02.072Z,0.00
2019-05-28T01:45:02.058Z,0.00
2019-05-28T01:46:02.048Z,0.00
2019-05-28T01:47:02.045Z,0.00
2019-05-28T01:48:02.035Z,0.00
2019-05-28T01:49:02.021Z,0.00
2019-05-28T01:50:02.016Z,0.00
2019-05-28T01:51:02.000Z,0.00
2019-05-28T01:52:01.991Z,0.00
2019-05-28T01:53:01.982Z,0.00
2019-05-28T01:54:01.972Z,0.00
2019-05-28T01:55:02.187Z,0.00
2019-05-28T01:56:01.997Z,0.00
2019-05-28T01:57:01.994Z,0.00
2019-05-28T01:58:01.933Z,0.00
2019-05-28T01:59:01.924Z,0.00
2019-05-28T02:00:01.914Z,0.00
2019-05-28T02:01:12.130Z,0.00
2019-05-28T02:02:01.893Z,0.00
2019-05-28T02:03:01.887Z,0.00
2019-05-28T02:04:01.879Z,0.00
2019-05-28T02:05:01.867Z,0.00
2019-05-28T02:06:01.855Z,0.00
2019-05-28T02:07:01.847Z,0.00
2019-05-28T02:08:01.875Z,0.00
2019-05-28T02:09:01.838Z,0.00
2019-05-28T02:10:01.821Z,0.00
2019-05-28T02:11:01.815Z,0.00
2019-05-28T02:12:01.847Z,0.00
2019-05-28T02:13:01.794Z,0.00
2019-05-28T02:14:01.778Z,0.00
2019-05-28T02:15:01.770Z,0.00
2019-05-28T02:16:01.759Z,0.00
2019-05-28T02:17:01.747Z,0.00
2019-05-28T02:18:01.737Z,0.00
2019-05-28T02:19:01.727Z,0.00
2019-05-28T02:20:01.718Z,0.00
2019-05-28T02:21:01.706Z,0.00
2019-05-28T02:22:01.707Z,0.00
2019-05-28T02:23:01.708Z,0.00
2019-05-28T02:24:01.677Z,0.00
2019-05-28T02:25:01.667Z,0.00
2019-05-28T02:26:01.658Z,0.00
2019-05-28T02:27:01.666Z,0.00
2019-05-28T02:28:01.639Z,0.00
2019-05-28T02:29:01.629Z,0.00
2019-05-28T02:30:01.787Z,0.00
2019-05-28T02:31:01.609Z,0.00
2019-05-28T02:32:01.651Z,0.00
2019-05-28T02:33:01.597Z,0.00
2019-05-28T02:34:01.579Z,0.00
2019-05-28T02:35:01.583Z,0.00
2019-05-28T02:36:01.564Z,0.00
2019-05-28T02:37:01.549Z,0.00
2019-05-28T02:38:01.540Z,0.00
2019-05-28T02:39:01.529Z,0.00
2019-05-28T02:40:01.527Z,0.00
2019-05-28T02:41:01.509Z,0.00
2019-05-28T02:42:01.549Z,0.00
2019-05-28T02:43:01.491Z,0.00
2019-05-28T02:44:01.482Z,0.00
2019-05-28T02:45:01.471Z,0.00
2019-05-28T02:46:01.462Z,0.00
2019-05-28T02:47:01.451Z,0.00
2019-05-28T02:48:01.446Z,0.00
2019-05-28T02:49:01.430Z,0.00
2019-05-28T02:50:01.419Z,0.00
2019-05-28T02:51:01.426Z,0.00
2019-05-28T02:52:01.408Z,0.00
2019-05-28T02:53:01.388Z,0.00
2019-05-28T02:54:01.380Z,0.00
2019-05-28T02:55:01.375Z,0.00
2019-05-28T02:56:01.364Z,0.00
2019-05-28T02:57:01.350Z,0.00
2019-05-28T02:58:01.341Z,4.00
2019-05-28T02:59:01.333Z,4.00
2019-05-28T03:00:01.319Z,4.00
2019-05-28T03:01:01.309Z,4.00
2019-05-28T03:02:01.405Z,4.00
2019-05-28T03:03:01.296Z,4.00
2019-05-28T03:04:01.282Z,4.00
2019-05-28T03:05:01.269Z,8.00
2019-05-28T03:06:01.263Z,4.00
2019-05-28T03:07:01.252Z,8.00
2019-05-28T03:08:01.239Z,8.00
2019-05-28T03:09:01.228Z,8.00
2019-05-28T03:10:01.217Z,8.00
2019-05-28T03:11:03.842Z,12.00
2019-05-28T03:12:01.248Z,12.00
2019-05-28T03:13:01.192Z,12.00
2019-05-28T03:14:01.182Z,16.00
2019-05-28T03:15:01.166Z,20.00
2019-05-28T03:16:01.161Z,20.00
2019-05-28T03:17:01.151Z,20.00
2019-05-28T03:18:01.138Z,24.00
2019-05-28T03:19:01.133Z,28.00
2019-05-28T03:20:01.116Z,28.00
2019-05-28T03:21:01.108Z,32.00
2019-05-28T03:22:01.097Z,36.00
2019-05-28T03:23:01.089Z,36.00
2019-05-28T03:24:01.126Z,40.00
2019-05-28T03:25:01.066Z,44.00
2019-05-28T03:26:01.055Z,48.00
2019-05-28T03:27:01.048Z,48.00
2019-05-28T03:28:01.041Z,52.00
2019-05-28T03:29:01.027Z,52.00
2019-05-28T03:30:01.030Z,56.00
2019-05-28T03:31:01.012Z,60.00
2019-05-28T03:32:07.600Z,64.00
2019-05-28T03:33:01.097Z,68.00
2019-05-28T03:34:00.981Z,72.00
2019-05-28T03:35:00.972Z,76.00
2019-05-28T03:36:00.958Z,84.00
2019-05-28T03:37:00.946Z,92.00
2019-05-28T03:38:00.936Z,104.00
2019-05-28T03:39:00.927Z,112.00
2019-05-28T03:40:00.918Z,128.00
2019-05-28T03:41:00.907Z,136.00
2019-05-28T03:42:00.904Z,148.00
2019-05-28T03:43:00.893Z,156.00
2019-05-28T03:44:01.978Z,164.00
2019-05-28T03:45:00.869Z,172.00
2019-05-28T03:46:00.868Z,180.00
2019-05-28T03:47:00.849Z,192.00
2019-05-28T03:48:00.838Z,208.00
2019-05-28T03:49:00.829Z,220.00
2019-05-28T03:50:00.817Z,236.00
2019-05-28T03:51:00.809Z,252.00
2019-05-28T03:52:00.798Z,268.00
2019-05-28T03:53:00.786Z,288.00
2019-05-28T03:54:00.778Z,308.00
2019-05-28T03:55:00.770Z,328.00
2019-05-28T03:56:00.757Z,356.00
2019-05-28T03:57:00.747Z,384.00
2019-05-28T03:58:00.737Z,420.00
2019-05-28T03:59:00.727Z,456.00
2019-05-28T04:00:01.918Z,504.00
2019-05-28T04:01:00.709Z,548.00
2019-05-28T04:02:00.697Z,596.00
2019-05-28T04:03:00.691Z,644.00
2019-05-28T04:04:00.677Z,692.00
2019-05-28T04:05:00.668Z,732.00
2019-05-28T04:06:00.658Z,768.00
2019-05-28T04:07:00.648Z,792.00
2019-05-28T04:08:00.640Z,800.00
2019-05-28T04:09:00.626Z,800.00
2019-05-28T04:10:00.630Z,800.00
2019-05-28T04:11:00.606Z,800.00
2019-05-28T04:12:00.596Z,804.00
2019-05-28T04:13:00.585Z,796.00
2019-05-28T04:14:00.575Z,788.00
2019-05-28T04:15:00.568Z,780.00
2019-05-28T04:16:00.572Z,776.00
2019-05-28T04:17:00.549Z,784.00
2019-05-28T04:18:00.535Z,740.00
2019-05-28T04:19:00.526Z,696.00
2019-05-28T04:20:00.516Z,684.00
2019-05-28T04:21:00.504Z,712.00
2019-05-28T04:22:01.504Z,704.00
2019-05-28T04:23:00.485Z,704.00
2019-05-28T04:24:00.477Z,692.00
2019-05-28T04:25:00.465Z,672.00
2019-05-28T04:26:00.454Z,728.00
2019-05-28T04:27:00.445Z,796.00
2019-05-28T04:28:00.437Z,800.00
2019-05-28T04:29:00.428Z,804.00
2019-05-28T04:30:00.414Z,700.00
2019-05-28T04:31:00.409Z,656.00
2019-05-28T04:32:00.393Z,696.00
2019-05-28T04:33:00.393Z,728.00
2019-05-28T04:34:00.374Z,768.00
2019-05-28T04:35:00.394Z,804.00
2019-05-28T04:36:00.353Z,844.00
2019-05-28T04:37:00.344Z,880.00
2019-05-28T04:38:00.332Z,904.00
2019-05-28T04:39:00.323Z,944.00
2019-05-28T04:40:00.314Z,1032.00
2019-05-28T04:41:00.302Z,1168.00
2019-05-28T04:42:01.894Z,1300.00
2019-05-28T04:43:00.283Z,1376.00
2019-05-28T04:44:00.277Z,1484.00
2019-05-28T04:45:03.524Z,1652.00
2019-05-28T04:46:00.253Z,1856.00
2019-05-28T04:47:00.250Z,1992.00
2019-05-28T04:48:00.235Z,2000.00
2019-05-28T04:49:00.334Z,2020.00
2019-05-28T04:50:00.314Z,2016.00
2019-05-28T04:51:00.306Z,2128.00
2019-05-28T04:52:00.216Z,2348.00
2019-05-28T04:53:00.234Z,2596.00
2019-05-28T04:54:00.174Z,2816.00
2019-05-28T04:55:00.263Z,3048.00
2019-05-28T04:56:00.254Z,3096.00
2019-05-28T04:57:00.243Z,3132.00
2019-05-28T04:58:00.256Z,3140.00
2019-05-28T04:59:03.681Z,3192.00
2019-05-28T05:00:00.115Z,3188.00
2019-05-28T05:01:00.203Z,3136.00
2019-05-28T05:02:00.093Z,3416.00
2019-05-28T05:03:00.972Z,3620.00
2019-05-28T05:04:00.081Z,3696.00
2019-05-28T05:05:00.127Z,3792.00
2019-05-28T05:06:00.058Z,4084.00
2019-05-28T05:07:00.053Z,4456.00
2019-05-28T05:08:00.037Z,4736.00
2019-05-28T05:09:00.024Z,4984.00
2019-05-28T05:10:00.016Z,5448.00
2019-05-28T05:11:00.016Z,5648.00
2019-05-28T05:11:59.997Z,5616.00
2019-05-28T05:12:59.994Z,5336.00
2019-05-28T05:13:59.977Z,4564.00
2019-05-28T05:14:59.996Z,3712.00
2019-05-28T05:15:59.957Z,3980.00
2019-05-28T05:16:59.947Z,4160.00
2019-05-28T05:17:59.940Z,4072.00
2019-05-28T05:18:59.929Z,3752.00
2019-05-28T05:19:59.918Z,3492.00
2019-05-28T05:20:59.908Z,2888.00
2019-05-28T05:21:59.898Z,2724.00
2019-05-28T05:22:59.889Z,2396.00
2019-05-28T05:23:59.880Z,2172.00
2019-05-28T05:24:59.869Z,2096.00
2019-05-28T05:25:59.861Z,2048.00
2019-05-28T05:26:59.854Z,2216.00
2019-05-28T05:27:59.842Z,2440.00
2019-05-28T05:28:59.830Z,2680.00
2019-05-28T05:29:59.821Z,3036.00
2019-05-28T05:30:59.818Z,3476.00
2019-05-28T05:31:59.802Z,3816.00
2019-05-28T05:33:18.601Z,4048.00
2019-05-28T05:33:59.782Z,4408.00
2019-05-28T05:34:59.772Z,4696.00
2019-05-28T05:35:59.764Z,5116.00
2019-05-28T05:36:59.752Z,5620.00
2019-05-28T05:37:59.758Z,6208.00
2019-05-28T05:38:59.737Z,6656.00
2019-05-28T05:39:59.724Z,7032.00
2019-05-28T05:40:59.718Z,7064.00
2019-05-28T05:41:59.705Z,6636.00
2019-05-28T05:42:59.696Z,5948.00
2019-05-28T05:43:59.685Z,5552.00
2019-05-28T05:44:59.675Z,5420.00
2019-05-28T05:45:59.666Z,5236.00
2019-05-28T05:46:59.656Z,5252.00
2019-05-28T05:47:59.648Z,5624.00
2019-05-28T05:48:59.637Z,6152.00
2019-05-28T05:49:59.629Z,6476.00
2019-05-28T05:50:59.619Z,6772.00
2019-05-28T05:51:59.611Z,7132.00
2019-05-28T05:52:59.600Z,7676.00
2019-05-28T05:53:59.591Z,8260.00
2019-05-28T05:54:59.582Z,8568.00
2019-05-28T05:55:59.573Z,8832.00
2019-05-28T05:56:59.564Z,9084.00
2019-05-28T05:57:59.557Z,9288.00
2019-05-28T05:58:59.547Z,9300.00
2019-05-28T05:59:59.537Z,9368.00
2019-05-28T06:00:59.529Z,9804.00
2019-05-28T06:01:59.518Z,9848.00
2019-05-28T06:02:59.535Z,9748.00
2019-05-28T06:03:59.504Z,9868.00
2019-05-28T06:04:59.493Z,9552.00
2019-05-28T06:05:59.484Z,9284.00
2019-05-28T06:06:59.476Z,9408.00
2019-05-28T06:07:59.468Z,9564.00
2019-05-28T06:08:59.993Z,9452.00
2019-05-28T06:09:59.449Z,9180.00
2019-05-28T06:10:59.440Z,9160.00
2019-05-28T06:11:59.431Z,9120.00
2019-05-28T06:12:59.421Z,9096.00
2019-05-28T06:13:59.417Z,8944.00
2019-05-28T06:14:59.602Z,9012.00
2019-05-28T06:15:59.398Z,9352.00
2019-05-28T06:16:59.387Z,9612.00
2019-05-28T06:17:59.379Z,9768.00
2019-05-28T06:18:59.429Z,9912.00
2019-05-28T06:19:59.361Z,9988.00
2019-05-28T06:21:11.766Z,10008.00
2019-05-28T06:21:59.346Z,10048.00
2019-05-28T06:22:59.336Z,10176.00
2019-05-28T06:23:59.329Z,9988.00
2019-05-28T06:24:59.320Z,9940.00
2019-05-28T06:25:59.315Z,9480.00
2019-05-28T06:26:59.302Z,9832.00
2019-05-28T06:27:59.298Z,10944.00
2019-05-28T06:28:59.284Z,10596.00
2019-05-28T06:29:59.283Z,8988.00
2019-05-28T06:30:59.269Z,8240.00
2019-05-28T06:31:59.259Z,8220.00
2019-05-28T06:32:59.254Z,9188.00
2019-05-28T06:33:59.245Z,9416.00
2019-05-28T06:34:59.234Z,8860.00
2019-05-28T06:35:59.223Z,8756.00
2019-05-28T06:36:59.221Z,8236.00
2019-05-28T06:37:59.214Z,7556.00
2019-05-28T06:38:59.202Z,6056.00
2019-05-28T06:39:59.275Z,5620.00
2019-05-28T06:40:59.184Z,5760.00
2019-05-28T06:41:59.173Z,5884.00
2019-05-28T06:42:59.164Z,5696.00
2019-05-28T06:43:59.160Z,5088.00
2019-05-28T06:44:59.165Z,5052.00
2019-05-28T06:45:59.140Z,5232.00
2019-05-28T06:46:59.128Z,5192.00
2019-05-28T06:47:59.121Z,5988.00
2019-05-28T06:48:59.111Z,7824.00
2019-05-28T06:49:59.103Z,9260.00
2019-05-28T06:50:59.095Z,11204.00
2019-05-28T06:51:59.086Z,12124.00
2019-05-28T06:52:59.113Z,12112.00
2019-05-28T06:53:59.068Z,12716.00
2019-05-28T06:54:59.064Z,13772.00
2019-05-28T06:55:59.063Z,12576.00
2019-05-28T06:56:59.059Z,9804.00
2019-05-28T06:57:59.038Z,8428.00
2019-05-28T06:58:59.029Z,8332.00
2019-05-28T06:59:59.018Z,8152.00
2019-05-28T07:00:59.051Z,6964.00
2019-05-28T07:01:59.012Z,5788.00
2019-05-28T07:02:58.994Z,5164.00
2019-05-28T07:04:12.780Z,4816.00
2019-05-28T07:04:58.976Z,5148.00
2019-05-28T07:06:07.077Z,4976.00
2019-05-28T07:06:59.269Z,5276.00
2019-05-28T07:07:58.951Z,4944.00
2019-05-28T07:08:58.951Z,3960.00
2019-05-28T07:09:59.048Z,3260.00
2019-05-28T07:10:59.179Z,3800.00
2019-05-28T07:11:58.918Z,4712.00
2019-05-28T07:12:58.909Z,5436.00
2019-05-28T07:13:58.900Z,6572.00
2019-05-28T07:14:59.072Z,7356.00
2019-05-28T07:15:58.884Z,8704.00
2019-05-28T07:16:58.875Z,8536.00
2019-05-28T07:17:59.697Z,7404.00
2019-05-28T07:18:58.863Z,6804.00
2019-05-28T07:19:58.849Z,6624.00
2019-05-28T07:20:58.854Z,6288.00
2019-05-28T07:21:58.847Z,5708.00
2019-05-28T07:22:58.842Z,5600.00
2019-05-28T07:23:58.925Z,5880.00
2019-05-28T07:24:58.805Z,6232.00
2019-05-28T07:25:58.805Z,6340.00
2019-05-28T07:26:58.798Z,6192.00
2019-05-28T07:28:10.616Z,6160.00
2019-05-28T07:28:58.771Z,6428.00
2019-05-28T07:29:58.763Z,6816.00
2019-05-28T07:30:58.786Z,7196.00
2019-05-28T07:31:58.746Z,7604.00
2019-05-28T07:32:58.738Z,7956.00
2019-05-28T07:33:58.729Z,8092.00
2019-05-28T07:34:58.721Z,8172.00
2019-05-28T07:35:58.712Z,8244.00
2019-05-28T07:36:58.769Z,8384.00
2019-05-28T07:37:58.711Z,8868.00
2019-05-28T07:38:58.687Z,9844.00
2019-05-28T07:39:58.678Z,11348.00
2019-05-28T07:40:58.675Z,12776.00
2019-05-28T07:41:58.660Z,13592.00
2019-05-28T07:42:58.855Z,14296.00
2019-05-28T07:43:58.645Z,15340.00
2019-05-28T07:44:58.636Z,17024.00
2019-05-28T07:45:58.644Z,19456.00
2019-05-28T07:46:58.621Z,31200.00
2019-05-28T07:47:58.613Z,22304.00
2019-05-28T07:48:58.605Z,112128.00
2019-05-28T07:49:58.598Z,56032.00
2019-05-28T07:50:58.601Z,52160.00
2019-05-28T07:51:58.584Z,46240.00
2019-05-28T07:52:58.577Z,33472.00
2019-05-28T07:53:58.589Z,66816.00
2019-05-28T07:54:58.566Z,66080.00
2019-05-28T07:55:58.580Z,87968.00
2019-05-28T07:56:58.555Z,85472.00
2019-05-28T07:57:58.557Z,121280.00
2019-05-28T07:58:58.548Z,29536.00
2019-05-28T07:59:58.547Z,23168.00
2019-05-28T08:00:58.550Z,21408.00
2019-05-28T08:01:58.533Z,22592.00
2019-05-28T08:02:58.529Z,14428.00
2019-05-28T08:03:58.525Z,13448.00
2019-05-28T08:04:58.524Z,10452.00
2019-05-28T08:05:58.519Z,8392.00
2019-05-28T08:06:58.509Z,9088.00
2019-05-28T08:07:58.504Z,12416.00
2019-05-28T08:08:58.499Z,16020.00
2019-05-28T08:09:58.495Z,15116.00
2019-05-28T08:10:58.488Z,13856.00
2019-05-28T08:11:58.482Z,14168.00
2019-05-28T08:12:58.477Z,13980.00
2019-05-28T08:13:58.469Z,11664.00
2019-05-28T08:14:58.464Z,7568.00
2019-05-28T08:16:16.907Z,5604.00
2019-05-28T08:16:58.451Z,4520.00
2019-05-28T08:17:58.444Z,4512.00
2019-05-28T08:18:58.438Z,5980.00
2019-05-28T08:19:58.432Z,8572.00
2019-05-28T08:20:58.434Z,10720.00
2019-05-28T08:21:58.427Z,12156.00
2019-05-28T08:22:58.411Z,12860.00
2019-05-28T08:23:58.406Z,13136.00
2019-05-28T08:24:58.401Z,13488.00
2019-05-28T08:26:01.684Z,13776.00
2019-05-28T08:26:58.383Z,13884.00
2019-05-28T08:28:16.483Z,14768.00
2019-05-28T08:28:59.753Z,15372.00
2019-05-28T08:29:58.367Z,15940.00
2019-05-28T08:31:14.000Z,16672.00
2019-05-28T08:31:58.349Z,17152.00
2019-05-28T08:32:58.381Z,17376.00
2019-05-28T08:33:58.334Z,17312.00
2019-05-28T08:35:05.490Z,17120.00
2019-05-28T08:35:58.321Z,16768.00
2019-05-28T08:37:05.964Z,15928.00
2019-05-28T08:37:58.310Z,14576.00
2019-05-28T08:38:58.300Z,13352.00
2019-05-28T08:39:58.297Z,12772.00
2019-05-28T08:40:58.285Z,12472.00
2019-05-28T08:41:58.279Z,11688.00
2019-05-28T08:42:58.280Z,10064.00
2019-05-28T08:43:58.264Z,8928.00
2019-05-28T08:44:58.257Z,6848.00
2019-05-28T08:45:58.254Z,7552.00
2019-05-28T08:46:58.252Z,8400.00
2019-05-28T08:47:58.234Z,8604.00
2019-05-28T08:48:58.226Z,8688.00
2019-05-28T08:49:58.218Z,8728.00
2019-05-28T08:50:58.212Z,8720.00
2019-05-28T08:51:58.202Z,8644.00
2019-05-28T08:52:58.196Z,8612.00
2019-05-28T08:53:58.184Z,8484.00
2019-05-28T08:54:58.185Z,8448.00
2019-05-28T08:55:58.177Z,8364.00
2019-05-28T08:56:58.160Z,8372.00
2019-05-28T08:58:01.341Z,8568.00
2019-05-28T08:58:58.141Z,8712.00
2019-05-28T08:59:58.133Z,8912.00
2019-05-28T09:00:58.122Z,9000.00
2019-05-28T09:01:58.113Z,8840.00
2019-05-28T09:02:58.104Z,8604.00
2019-05-28T09:03:58.096Z,8448.00
2019-05-28T09:04:58.087Z,8304.00
2019-05-28T09:05:58.084Z,7960.00
2019-05-28T09:06:58.075Z,7608.00
2019-05-28T09:07:58.062Z,7140.00
2019-05-28T09:08:58.054Z,6740.00
2019-05-28T09:09:58.042Z,6532.00
2019-05-28T09:10:58.094Z,6488.00
2019-05-28T09:11:58.024Z,6528.00
2019-05-28T09:12:58.017Z,6712.00
2019-05-28T09:13:58.011Z,6948.00
2019-05-28T09:14:58.023Z,7284.00
2019-05-28T09:15:57.985Z,7304.00
2019-05-28T09:16:57.981Z,7340.00
2019-05-28T09:17:57.967Z,7452.00
2019-05-28T09:18:57.963Z,7484.00
2019-05-28T09:19:57.949Z,7716.00
2019-05-28T09:20:57.958Z,7612.00
2019-05-28T09:21:57.928Z,7564.00
2019-05-28T09:22:57.924Z,7440.00
2019-05-28T09:23:57.913Z,7348.00
2019-05-28T09:24:57.903Z,6896.00
2019-05-28T09:25:57.894Z,6388.00
2019-05-28T09:26:57.893Z,5900.00
2019-05-28T09:27:57.874Z,5664.00
2019-05-28T09:28:57.872Z,5864.00
2019-05-28T09:29:57.853Z,6504.00
2019-05-28T09:30:57.854Z,7352.00
2019-05-28T09:31:57.838Z,8300.00
2019-05-28T09:32:57.865Z,9104.00
2019-05-28T09:33:57.817Z,9332.00
2019-05-28T09:35:01.597Z,9160.00
2019-05-28T09:36:08.206Z,8904.00
2019-05-28T09:36:57.788Z,8148.00
2019-05-28T09:37:57.780Z,7788.00
2019-05-28T09:38:57.769Z,7416.00
2019-05-28T09:39:57.761Z,7340.00
2019-05-28T09:40:57.750Z,7340.00
2019-05-28T09:41:57.741Z,7660.00
2019-05-28T09:42:57.735Z,7780.00
2019-05-28T09:43:57.722Z,8072.00
2019-05-28T09:44:57.712Z,7716.00
2019-05-28T09:45:57.703Z,6984.00
2019-05-28T09:46:57.694Z,9364.00
2019-05-28T09:47:57.684Z,9328.00
2019-05-28T09:48:57.681Z,3712.00
2019-05-28T09:49:57.667Z,3228.00
2019-05-28T09:50:57.654Z,3676.00
2019-05-28T09:51:57.645Z,3620.00
2019-05-28T09:52:57.636Z,3356.00
2019-05-28T09:53:57.623Z,3080.00
2019-05-28T09:54:57.614Z,2856.00
2019-05-28T09:55:57.604Z,2604.00
2019-05-28T09:56:57.602Z,2352.00
2019-05-28T09:57:57.582Z,2188.00
2019-05-28T09:58:57.571Z,2088.00
2019-05-28T09:59:57.560Z,2072.00
2019-05-28T10:00:59.035Z,2176.00
2019-05-28T10:01:57.538Z,2344.00
2019-05-28T10:02:57.529Z,2480.00
2019-05-28T10:03:57.516Z,2584.00
2019-05-28T10:04:57.504Z,2668.00
2019-05-28T10:06:15.103Z,2680.00
2019-05-28T10:06:57.520Z,2572.00
2019-05-28T10:07:57.470Z,2444.00
2019-05-28T10:08:57.459Z,2388.00
2019-05-28T10:09:57.447Z,2232.00
2019-05-28T10:10:57.436Z,2116.00
2019-05-28T10:11:57.426Z,2036.00
2019-05-28T10:12:57.476Z,2040.00
2019-05-28T10:13:57.402Z,2076.00
2019-05-28T10:14:57.393Z,2088.00
2019-05-28T10:15:57.386Z,2116.00
2019-05-28T10:16:57.367Z,2196.00
2019-05-28T10:17:57.596Z,2312.00
2019-05-28T10:18:57.346Z,2472.00
2019-05-28T10:19:57.336Z,2656.00
2019-05-28T10:20:57.323Z,2788.00
2019-05-28T10:21:57.319Z,2872.00
2019-05-28T10:22:57.301Z,2936.00
2019-05-28T10:23:57.292Z,2984.00
2019-05-28T10:24:57.280Z,3004.00
2019-05-28T10:25:57.269Z,3060.00
2019-05-28T10:26:57.257Z,3100.00
2019-05-28T10:28:01.415Z,3244.00
2019-05-28T10:28:57.234Z,3372.00
2019-05-28T10:29:57.223Z,3500.00
2019-05-28T10:30:57.213Z,3600.00
2019-05-28T10:31:57.202Z,3692.00
2019-05-28T10:32:57.231Z,3900.00
2019-05-28T10:33:57.180Z,4176.00
2019-05-28T10:35:03.767Z,4444.00
2019-05-28T10:35:57.160Z,4676.00
2019-05-28T10:36:57.148Z,5000.00
2019-05-28T10:37:57.137Z,5456.00
2019-05-28T10:38:57.128Z,5892.00
2019-05-28T10:39:57.119Z,6380.00
2019-05-28T10:40:57.107Z,6816.00
2019-05-28T10:41:57.096Z,7196.00
2019-05-28T10:42:57.086Z,7796.00
2019-05-28T10:43:57.138Z,8404.00
2019-05-28T10:44:57.063Z,9012.00
2019-05-28T10:45:57.097Z,9688.00
2019-05-28T10:46:57.041Z,10316.00
2019-05-28T10:47:57.030Z,10664.00
2019-05-28T10:48:57.035Z,10968.00
2019-05-28T10:49:57.010Z,11148.00
2019-05-28T10:50:57.001Z,11376.00
2019-05-28T10:51:56.990Z,11584.00
2019-05-28T10:52:56.979Z,11812.00
2019-05-28T10:53:56.969Z,11976.00
2019-05-28T10:54:56.959Z,12228.00
2019-05-28T10:55:56.950Z,12536.00
2019-05-28T10:56:56.938Z,13016.00
2019-05-28T10:57:56.929Z,13680.00
2019-05-28T10:58:56.919Z,14548.00
2019-05-28T10:59:56.912Z,15608.00
2019-05-28T11:00:56.901Z,16960.00
2019-05-28T11:01:56.891Z,18112.00
2019-05-28T11:02:56.883Z,19040.00
2019-05-28T11:03:56.881Z,19840.00
2019-05-28T11:04:56.933Z,20448.00
2019-05-28T11:05:56.854Z,20864.00
2019-05-28T11:06:56.845Z,21152.00
2019-05-28T11:07:56.836Z,21632.00
2019-05-28T11:08:56.827Z,22976.00
2019-05-28T11:09:56.821Z,24768.00
2019-05-28T11:10:56.810Z,24864.00
2019-05-28T11:11:56.804Z,26720.00
2019-05-28T11:12:56.834Z,24928.00
2019-05-28T11:13:56.847Z,28224.00
2019-05-28T11:14:56.780Z,31584.00
2019-05-28T11:15:56.772Z,33824.00
2019-05-28T11:16:56.762Z,31872.00
2019-05-28T11:17:56.755Z,23936.00
2019-05-28T11:18:56.749Z,28064.00
2019-05-28T11:19:56.743Z,25408.00
2019-05-28T11:20:56.734Z,23136.00
2019-05-28T11:21:56.728Z,21312.00
2019-05-28T11:22:56.723Z,19520.00
2019-05-28T11:23:56.715Z,15476.00
2019-05-28T11:24:56.720Z,13720.00
2019-05-28T11:25:56.708Z,17152.00
2019-05-28T11:26:56.710Z,21024.00
2019-05-28T11:27:56.713Z,23552.00
2019-05-28T11:28:56.682Z,20512.00
2019-05-28T11:29:56.675Z,12568.00
2019-05-28T11:30:56.669Z,10056.00
2019-05-28T11:31:56.663Z,13024.00
2019-05-28T11:32:56.661Z,17536.00
2019-05-28T11:33:56.648Z,17568.00
2019-05-28T11:34:56.642Z,20800.00
2019-05-28T11:35:56.637Z,20832.00
2019-05-28T11:37:08.865Z,23296.00
2019-05-28T11:37:56.621Z,35456.00
2019-05-28T11:38:56.614Z,40896.00
2019-05-28T11:39:56.608Z,47232.00
2019-05-28T11:40:56.603Z,54144.00
2019-05-28T11:41:56.598Z,57088.00
2019-05-28T11:42:56.592Z,60832.00
2019-05-28T11:43:56.586Z,59200.00
2019-05-28T11:44:56.584Z,43936.00
2019-05-28T11:45:56.579Z,63328.00
2019-05-28T11:46:56.575Z,68576.00
2019-05-28T11:47:56.573Z,64000.00
2019-05-28T11:48:56.569Z,24608.00
2019-05-28T11:49:56.567Z,23808.00
2019-05-28T11:50:56.566Z,27776.00
2019-05-28T11:51:56.565Z,24480.00
2019-05-28T11:52:56.567Z,19680.00
2019-05-28T11:53:56.559Z,16640.00
2019-05-28T11:54:56.555Z,14868.00
2019-05-28T11:55:56.552Z,16168.00
2019-05-28T11:56:56.549Z,19296.00
2019-05-28T11:57:56.544Z,23200.00
2019-05-28T11:58:56.547Z,20864.00
2019-05-28T11:59:56.541Z,17408.00
2019-05-28T12:00:56.532Z,16052.00
2019-05-28T12:01:56.538Z,18336.00
2019-05-28T12:02:56.524Z,18400.00
2019-05-28T12:03:56.546Z,20512.00
2019-05-28T12:04:56.518Z,22528.00
2019-05-28T12:05:56.512Z,23776.00
2019-05-28T12:06:56.507Z,20416.00
2019-05-28T12:07:56.502Z,21280.00
2019-05-28T12:08:56.505Z,19488.00
2019-05-28T12:09:56.490Z,20320.00
2019-05-28T12:10:56.488Z,53984.00
2019-05-28T12:11:56.489Z,46688.00
2019-05-28T12:12:56.485Z,37632.00
2019-05-28T12:13:56.474Z,22336.00
2019-05-28T12:14:56.473Z,20736.00
2019-05-28T12:15:56.467Z,18624.00
2019-05-28T12:16:56.468Z,16252.00
2019-05-28T12:17:56.461Z,15212.00
2019-05-28T12:18:58.421Z,13508.00
2019-05-28T12:19:56.452Z,12296.00
2019-05-28T12:20:56.446Z,11056.00